createdAt,value
2018-07-22T00:00:50.208Z,100768.86
2018-07-22T00:03:18.437Z,100772.08
2018-07-22T00:05:46.671Z,100771.03
2018-07-22T00:08:14.904Z,100773.42
2018-07-22T00:10:43.128Z,100779.33
2018-07-22T00:13:11.352Z,100781.20
2018-07-22T00:15:39.573Z,100777.88
2018-07-22T00:18:07.829Z,100781.71
2018-07-22T00:20:36.057Z,100777.56
2018-07-22T00:23:04.305Z,100775.70
2018-07-22T00:25:32.553Z,100782.13
2018-07-22T00:28:00.781Z,100784.20
2018-07-22T00:30:29.005Z,100792.72
2018-07-22T00:32:57.245Z,100787.02
2018-07-22T00:35:25.456Z,100791.25
2018-07-22T00:37:53.684Z,100794.27
2018-07-22T00:40:21.896Z,100794.98
2018-07-22T00:42:50.117Z,100793.95
2018-07-22T00:45:18.345Z,100799.03
2018-07-22T00:47:46.566Z,100800.38
2018-07-22T00:50:14.812Z,100793.25
2018-07-22T00:52:43.044Z,100796.55
2018-07-22T00:55:11.285Z,100803.07
2018-07-22T00:57:39.501Z,100796.14
2018-07-22T01:00:08.414Z,100801.00
2018-07-22T01:02:36.544Z,100795.50
2018-07-22T01:05:05.158Z,100792.29
2018-07-22T01:07:33.401Z,100794.98
2018-07-22T01:10:01.634Z,100792.29
2018-07-22T01:12:29.874Z,100794.47
2018-07-22T01:14:58.106Z,100795.50
2018-07-22T01:17:26.346Z,100792.38
2018-07-22T01:19:54.605Z,100791.03
2018-07-22T01:22:22.817Z,100802.41
2018-07-22T01:24:51.025Z,100803.02
2018-07-22T01:27:19.249Z,100799.38
2018-07-22T01:29:47.489Z,100799.47
2018-07-22T01:32:15.702Z,100806.72
2018-07-22T01:34:43.906Z,100801.13
2018-07-22T01:37:12.117Z,100808.47
2018-07-22T01:39:40.324Z,100807.33
2018-07-22T01:42:08.553Z,100806.61
2018-07-22T01:44:36.789Z,100812.19
2018-07-22T01:47:05.033Z,100810.02
2018-07-22T01:49:33.237Z,100804.83
2018-07-22T01:52:01.713Z,100814.37
2018-07-22T01:54:29.936Z,100812.91
2018-07-22T01:56:58.213Z,100808.55
2018-07-22T01:59:26.432Z,100809.27
2018-07-22T02:01:54.658Z,100808.84
2018-07-22T02:04:22.873Z,100813.59
2018-07-22T02:06:51.092Z,100816.48
2018-07-22T02:09:19.300Z,100818.13
2018-07-22T02:11:47.588Z,100812.52
2018-07-22T02:14:15.753Z,100820.47
2018-07-22T02:16:43.976Z,100825.73
2018-07-22T02:19:12.200Z,100824.81
2018-07-22T02:21:40.433Z,100828.22
2018-07-22T02:24:08.638Z,100826.55
2018-07-22T02:26:36.881Z,100832.12
2018-07-22T02:29:05.113Z,100830.86
2018-07-22T02:31:33.345Z,100835.80
2018-07-22T02:34:01.568Z,100837.86
2018-07-22T02:36:29.796Z,100838.17
2018-07-22T02:38:58.043Z,100839.84
2018-07-22T02:41:26.292Z,100834.77
2018-07-22T02:43:54.526Z,100837.66
2018-07-22T02:46:22.738Z,100842.53
2018-07-22T02:48:50.957Z,100841.38
2018-07-22T02:51:19.237Z,100841.38
2018-07-22T02:53:47.443Z,100843.55
2018-07-22T02:56:15.678Z,100843.55
2018-07-22T02:58:43.890Z,100839.20
2018-07-22T03:01:12.109Z,100845.48
2018-07-22T03:03:40.309Z,100852.73
2018-07-22T03:06:08.529Z,100851.31
2018-07-22T03:08:36.741Z,100851.31
2018-07-22T03:11:04.981Z,100856.05
2018-07-22T03:13:33.201Z,100860.23
2018-07-22T03:16:01.426Z,100858.87
2018-07-22T03:18:29.657Z,100866.10
2018-07-22T03:20:57.909Z,100863.61
2018-07-22T03:23:26.120Z,100859.06
2018-07-22T03:25:54.361Z,100862.06
2018-07-22T03:28:22.584Z,100865.27
2018-07-22T03:30:50.814Z,100866.48
2018-07-22T03:33:19.029Z,100865.53
2018-07-22T03:35:47.262Z,100870.05
2018-07-22T03:38:15.559Z,100878.82
2018-07-22T03:40:43.957Z,100874.47
2018-07-22T03:43:12.348Z,100879.66
2018-07-22T03:45:40.625Z,100873.77
2018-07-22T03:48:08.840Z,100878.19
2018-07-22T03:50:37.057Z,100886.12
2018-07-22T03:53:05.289Z,100887.21
2018-07-22T03:55:33.688Z,100888.97
2018-07-22T03:58:01.904Z,100896.16
2018-07-22T04:00:30.131Z,100893.47
2018-07-22T04:02:58.332Z,100895.84
2018-07-22T04:05:26.620Z,100887.33
2018-07-22T04:07:54.837Z,100888.86
2018-07-22T04:10:23.068Z,100890.45
2018-07-22T04:12:51.311Z,100898.37
2018-07-22T04:15:19.556Z,100901.13
2018-07-22T04:17:47.777Z,100900.48
2018-07-22T04:20:15.980Z,100896.32
2018-07-22T04:22:44.206Z,100903.17
2018-07-22T04:25:12.413Z,100904.00
2018-07-22T04:27:40.657Z,100903.36
2018-07-22T04:30:08.892Z,100901.05
2018-07-22T04:32:37.114Z,100905.08
2018-07-22T04:35:05.389Z,100907.58
2018-07-22T04:37:33.620Z,100910.12
2018-07-22T04:40:01.846Z,100914.43
2018-07-22T04:42:30.073Z,100911.34
2018-07-22T04:44:58.292Z,100919.91
2018-07-22T04:47:26.513Z,100917.41
2018-07-22T04:49:54.724Z,100928.34
2018-07-22T04:52:22.952Z,100929.06
2018-07-22T04:54:51.184Z,100925.73
2018-07-22T04:57:19.394Z,100924.06
2018-07-22T04:59:47.601Z,100923.66
2018-07-22T05:02:15.821Z,100932.30
2018-07-22T05:04:44.077Z,100932.67
2018-07-22T05:07:12.306Z,100940.73
2018-07-22T05:09:40.510Z,100935.41
2018-07-22T05:12:08.724Z,100937.07
2018-07-22T05:14:36.932Z,100938.23
2018-07-22T05:17:05.169Z,100945.31
2018-07-22T05:19:33.393Z,100952.85
2018-07-22T05:22:01.622Z,100948.13
2018-07-22T05:24:29.832Z,100951.65
2018-07-22T05:26:58.905Z,100949.29
2018-07-22T05:29:27.112Z,100952.81
2018-07-22T05:31:55.334Z,100945.77
2018-07-22T05:34:23.545Z,100955.67
2018-07-22T05:36:51.776Z,100955.49
2018-07-22T05:39:19.989Z,100950.45
2018-07-22T05:41:48.233Z,100951.28
2018-07-22T05:44:16.513Z,100956.70
2018-07-22T05:46:44.741Z,100956.27
2018-07-22T05:49:12.946Z,100959.56
2018-07-22T05:51:41.152Z,100958.41
2018-07-22T05:54:09.390Z,100960.13
2018-07-22T05:56:37.621Z,100965.30
2018-07-22T05:59:05.954Z,100965.39
2018-07-22T06:01:34.156Z,100969.08
2018-07-22T06:04:02.425Z,100971.94
2018-07-22T06:06:30.661Z,100974.95
2018-07-22T06:08:58.909Z,100970.60
2018-07-22T06:11:27.120Z,100973.31
2018-07-22T06:13:55.350Z,100975.30
2018-07-22T06:16:23.596Z,100974.62
2018-07-22T06:18:51.825Z,100983.14
2018-07-22T06:21:20.169Z,100980.94
2018-07-22T06:23:48.384Z,100981.95
2018-07-22T06:26:16.588Z,100979.72
2018-07-22T06:28:44.812Z,100980.88
2018-07-22T06:31:13.024Z,100984.69
2018-07-22T06:33:41.250Z,100978.31
2018-07-22T06:36:09.458Z,100976.37
2018-07-22T06:38:37.678Z,100973.98
2018-07-22T06:41:05.934Z,100982.00
2018-07-22T06:43:34.149Z,100982.83
2018-07-22T06:46:02.422Z,100990.63
2018-07-22T06:48:30.613Z,100987.95
2018-07-22T06:50:58.821Z,100996.69
2018-07-22T06:53:27.050Z,100998.53
2018-07-22T06:55:55.268Z,101001.33
2018-07-22T06:58:23.530Z,100998.28
2018-07-22T07:00:51.854Z,100998.55
2018-07-22T07:03:20.093Z,100999.84
2018-07-22T07:05:48.305Z,101005.50
2018-07-22T07:08:16.531Z,101006.95
2018-07-22T07:10:44.736Z,101003.36
2018-07-22T07:13:13.034Z,100998.36
2018-07-22T07:15:41.265Z,100995.12
2018-07-22T07:18:09.478Z,100999.66
2018-07-22T07:20:37.694Z,101000.67
2018-07-22T07:23:06.001Z,101004.34
2018-07-22T07:25:34.249Z,101005.31
2018-07-22T07:28:02.457Z,101006.91
2018-07-22T07:30:30.911Z,101014.92
2018-07-22T07:32:59.125Z,101019.56
2018-07-22T07:35:27.393Z,101021.34
2018-07-22T07:37:55.601Z,101016.06
2018-07-22T07:40:23.842Z,101021.31
2018-07-22T07:42:52.053Z,101018.27
2018-07-22T07:45:20.292Z,101023.95
2018-07-22T07:47:48.597Z,101025.11
2018-07-22T07:50:16.841Z,101016.69
2018-07-22T07:52:45.064Z,101021.28
2018-07-22T07:55:13.279Z,101017.20
2018-07-22T07:57:41.545Z,101015.30
2018-07-22T08:00:09.841Z,101020.17
2018-07-22T08:02:38.084Z,101025.55
2018-07-22T08:05:09.256Z,101020.73
2018-07-22T08:07:37.469Z,101019.70
2018-07-22T08:10:06.353Z,101021.42
2018-07-22T08:12:34.659Z,101025.12
2018-07-22T08:15:02.937Z,101023.35
2018-07-22T08:17:31.176Z,101022.70
2018-07-22T08:19:59.522Z,101020.45
2018-07-22T08:22:27.740Z,101023.09
2018-07-22T08:24:56.041Z,101022.91
2018-07-22T08:27:24.274Z,101012.80
2018-07-22T08:29:52.500Z,101020.17
2018-07-22T08:32:20.713Z,101012.11
2018-07-22T08:34:49.038Z,101013.45
2018-07-22T08:37:17.313Z,101009.61
2018-07-22T08:39:45.561Z,101012.62
2018-07-22T08:42:13.808Z,101010.25
2018-07-22T08:44:42.079Z,101015.39
2018-07-22T08:47:10.304Z,101015.72
2018-07-22T08:49:38.549Z,101022.38
2018-07-22T08:52:06.867Z,101011.45
2018-07-22T08:54:35.080Z,101012.73
2018-07-22T08:57:03.309Z,101014.32
2018-07-22T08:59:31.541Z,101018.95
2018-07-22T09:01:59.785Z,101013.00
2018-07-22T09:04:28.014Z,101020.09
2018-07-22T09:06:56.233Z,101018.69
2018-07-22T09:09:24.442Z,101011.22
2018-07-22T09:11:52.766Z,101008.11
2018-07-22T09:14:20.980Z,101005.63
2018-07-22T09:16:49.196Z,101011.14
2018-07-22T09:19:17.436Z,101014.25
2018-07-22T09:21:45.705Z,101019.38
2018-07-22T09:24:13.953Z,101012.91
2018-07-22T09:26:42.161Z,101012.65
2018-07-22T09:29:10.381Z,101010.22
2018-07-22T09:31:38.613Z,101009.45
2018-07-22T09:34:06.876Z,101012.36
2018-07-22T09:36:35.140Z,101012.55
2018-07-22T09:39:04.593Z,101012.50
2018-07-22T09:41:32.828Z,101016.17
2018-07-22T09:44:01.053Z,101018.08
2018-07-22T09:46:29.284Z,101015.63
2018-07-22T09:48:57.493Z,101023.53
2018-07-22T09:51:25.744Z,101019.94
2018-07-22T09:53:53.958Z,101019.66
2018-07-22T09:56:22.185Z,101021.77
2018-07-22T09:58:50.407Z,101017.41
2018-07-22T10:01:18.664Z,101013.17
2018-07-22T10:03:46.908Z,101011.11
2018-07-22T10:06:15.137Z,101020.34
2018-07-22T10:08:43.380Z,101010.20
2018-07-22T10:11:11.648Z,101006.33
2018-07-22T10:13:39.833Z,101008.91
2018-07-22T10:16:08.085Z,101005.73
2018-07-22T10:18:36.328Z,101004.93
2018-07-22T10:21:04.541Z,101010.52
2018-07-22T10:23:32.801Z,101001.83
2018-07-22T10:26:01.037Z,100998.64
2018-07-22T10:28:29.265Z,101002.94
2018-07-22T10:30:57.519Z,101005.42
2018-07-22T10:33:25.752Z,101002.64
2018-07-22T10:35:54.010Z,101002.11
2018-07-22T10:38:22.236Z,101005.66
2018-07-22T10:40:50.479Z,101000.57
2018-07-22T10:43:18.675Z,101001.49
2018-07-22T10:45:46.949Z,100995.47
2018-07-22T10:48:15.200Z,100996.31
2018-07-22T10:50:43.419Z,101007.71
2018-07-22T10:53:11.638Z,101000.56
2018-07-22T10:55:39.873Z,100995.08
2018-07-22T10:58:08.109Z,100992.56
2018-07-22T11:00:36.457Z,100994.66
2018-07-22T11:03:06.196Z,100988.77
2018-07-22T11:05:34.413Z,100988.84
2018-07-22T11:08:02.646Z,100989.82
2018-07-22T11:10:30.882Z,100983.90
2018-07-22T11:12:59.093Z,100988.02
2018-07-22T11:15:27.305Z,100990.60
2018-07-22T11:17:55.512Z,100986.81
2018-07-22T11:20:23.772Z,100986.02
2018-07-22T11:22:51.980Z,100977.88
2018-07-22T11:25:20.204Z,100973.99
2018-07-22T11:27:48.427Z,100976.23
2018-07-22T11:30:16.652Z,100978.73
2018-07-22T11:32:44.936Z,100982.18
2018-07-22T11:35:13.165Z,100980.99
2018-07-22T11:37:41.434Z,100981.49
2018-07-22T11:40:09.695Z,100968.61
2018-07-22T11:42:37.936Z,100972.30
2018-07-22T11:45:06.190Z,100976.66
2018-07-22T11:47:34.437Z,100968.33
2018-07-22T11:50:02.673Z,100960.88
2018-07-22T11:52:30.880Z,100962.27
2018-07-22T11:54:59.097Z,100959.01
2018-07-22T11:57:27.336Z,100955.59
2018-07-22T11:59:55.694Z,100957.36
2018-07-22T12:02:23.920Z,100959.90
2018-07-22T12:04:52.129Z,100953.81
2018-07-22T12:07:20.345Z,100961.78
2018-07-22T12:09:48.581Z,100953.03
2018-07-22T12:12:16.842Z,100952.55
2018-07-22T12:14:45.017Z,100955.72
2018-07-22T12:17:13.229Z,100953.72
2018-07-22T12:19:41.453Z,100950.95
2018-07-22T12:22:09.689Z,100945.80
2018-07-22T12:24:37.936Z,100935.23
2018-07-22T12:27:06.185Z,100941.67
2018-07-22T12:29:34.394Z,100939.34
2018-07-22T12:32:02.629Z,100926.80
2018-07-22T12:34:30.877Z,100938.61
2018-07-22T12:36:59.080Z,100930.59
2018-07-22T12:39:27.297Z,100935.80
2018-07-22T12:41:55.520Z,100931.25
2018-07-22T12:44:23.745Z,100929.20
2018-07-22T12:46:51.984Z,100924.49
2018-07-22T12:49:20.201Z,100919.61
2018-07-22T12:51:48.457Z,100905.23
2018-07-22T12:54:16.689Z,100914.67
2018-07-22T12:56:44.925Z,100908.39
2018-07-22T12:59:13.160Z,100915.06
2018-07-22T13:01:41.392Z,100919.00
2018-07-22T13:04:09.625Z,100920.61
2018-07-22T13:06:37.846Z,100906.88
2018-07-22T13:09:08.256Z,100906.59
2018-07-22T13:11:36.669Z,100915.60
2018-07-22T13:14:05.093Z,100909.70
2018-07-22T13:16:33.325Z,100912.19
2018-07-22T13:19:01.657Z,100920.33
2018-07-22T13:21:29.776Z,100912.73
2018-07-22T13:23:57.985Z,100910.42
2018-07-22T13:26:26.210Z,100906.91
2018-07-22T13:28:54.436Z,100914.02
2018-07-22T13:31:22.657Z,100913.03
2018-07-22T13:33:50.881Z,100904.23
2018-07-22T13:36:19.097Z,100909.75
2018-07-22T13:38:47.323Z,100905.02
2018-07-22T13:41:15.580Z,100917.00
2018-07-22T13:43:43.785Z,100904.70
2018-07-22T13:46:12.044Z,100910.34
2018-07-22T13:48:40.257Z,100910.73
2018-07-22T13:51:08.480Z,100899.95
2018-07-22T13:53:36.753Z,100912.11
2018-07-22T13:56:05.033Z,100903.38
2018-07-22T13:58:33.288Z,100906.37
2018-07-22T14:01:01.505Z,100899.97
2018-07-22T14:03:29.745Z,100904.05
2018-07-22T14:05:57.961Z,100916.66
2018-07-22T14:08:26.459Z,100905.97
2018-07-22T14:10:54.668Z,100911.36
2018-07-22T14:13:22.902Z,100911.22
2018-07-22T14:15:51.120Z,100907.87
2018-07-22T14:18:19.341Z,100902.89
2018-07-22T14:20:47.585Z,100905.05
2018-07-22T14:23:15.808Z,100909.66
2018-07-22T14:25:44.117Z,100902.06
2018-07-22T14:28:12.346Z,100911.70
2018-07-22T14:30:40.593Z,100903.77
2018-07-22T14:33:08.765Z,100894.84
2018-07-22T14:35:37.005Z,100898.42
2018-07-22T14:38:05.497Z,100893.02
2018-07-22T14:40:33.837Z,100891.70
2018-07-22T14:43:02.053Z,100897.48
2018-07-22T14:45:30.281Z,100893.38
2018-07-22T14:47:58.521Z,100887.92
2018-07-22T14:50:26.752Z,100889.23
2018-07-22T14:52:54.973Z,100886.17
2018-07-22T14:55:23.196Z,100893.54
2018-07-22T14:57:51.429Z,100891.86
2018-07-22T15:00:19.690Z,100889.93
2018-07-22T15:02:47.889Z,100888.25
2018-07-22T15:05:16.178Z,100884.67
2018-07-22T15:07:44.386Z,100884.42
2018-07-22T15:10:12.612Z,100890.98
2018-07-22T15:12:40.856Z,100891.18
2018-07-22T15:15:09.134Z,100892.48
2018-07-22T15:17:37.364Z,100886.84
2018-07-22T15:20:06.113Z,100888.84
2018-07-22T15:22:34.340Z,100889.56
2018-07-22T15:25:02.556Z,100893.08
2018-07-22T15:27:30.945Z,100892.62
2018-07-22T15:29:59.168Z,100898.97
2018-07-22T15:32:27.408Z,100902.80
2018-07-22T15:34:55.616Z,100905.43
2018-07-22T15:37:23.867Z,100900.80
2018-07-22T15:39:52.081Z,100893.83
2018-07-22T15:42:20.301Z,100904.88
2018-07-22T15:44:48.549Z,100905.48
2018-07-22T15:47:16.793Z,100914.72
2018-07-22T15:49:45.010Z,100909.80
2018-07-22T15:52:13.236Z,100912.22
2018-07-22T15:54:41.496Z,100901.55
2018-07-22T15:57:09.716Z,100903.80
2018-07-22T15:59:37.950Z,100907.19
2018-07-22T16:02:06.284Z,100911.19
2018-07-22T16:04:34.516Z,100910.78
2018-07-22T16:07:02.759Z,100915.81
2018-07-22T16:09:30.961Z,100914.23
2018-07-22T16:11:59.188Z,100910.25
2018-07-22T16:14:27.429Z,100905.47
2018-07-22T16:16:55.664Z,100906.21
2018-07-22T16:19:23.873Z,100908.28
2018-07-22T16:21:52.097Z,100907.39
2018-07-22T16:24:20.325Z,100908.75
2018-07-22T16:26:48.587Z,100907.03
2018-07-22T16:29:16.885Z,100902.64
2018-07-22T16:31:45.105Z,100906.98
2018-07-22T16:34:13.320Z,100900.78
2018-07-22T16:36:41.541Z,100902.97
2018-07-22T16:39:10.449Z,100898.36
2018-07-22T16:41:39.044Z,100907.87
2018-07-22T16:44:07.659Z,100908.63
2018-07-22T16:46:36.155Z,100905.83
2018-07-22T16:49:04.378Z,100905.67
2018-07-22T16:51:32.621Z,100903.42
2018-07-22T16:54:00.865Z,100899.82
2018-07-22T16:56:29.104Z,100900.62
2018-07-22T16:58:57.328Z,100900.49
2018-07-22T17:01:25.585Z,100896.36
2018-07-22T17:03:53.843Z,100895.77
2018-07-22T17:06:22.053Z,100899.90
2018-07-22T17:08:50.293Z,100906.56
2018-07-22T17:11:18.553Z,100902.39
2018-07-22T17:13:46.794Z,100904.52
2018-07-22T17:16:14.989Z,100902.33
2018-07-22T17:18:43.192Z,100904.52
2018-07-22T17:21:11.404Z,100907.23
2018-07-22T17:23:39.682Z,100907.23
2018-07-22T17:26:08.044Z,100906.77
2018-07-22T17:28:36.352Z,100907.77
2018-07-22T17:31:04.638Z,100907.46
2018-07-22T17:33:32.818Z,100913.89
2018-07-22T17:36:01.037Z,100917.96
2018-07-22T17:38:29.252Z,100916.53
2018-07-22T17:40:57.462Z,100921.63
2018-07-22T17:43:25.680Z,100918.09
2018-07-22T17:45:53.905Z,100916.67
2018-07-22T17:48:22.115Z,100923.39
2018-07-22T17:50:50.321Z,100920.47
2018-07-22T17:53:18.596Z,100926.03
2018-07-22T17:55:46.805Z,100926.02
2018-07-22T17:58:15.053Z,100931.11
2018-07-22T18:00:43.265Z,100922.30
2018-07-22T18:03:32.848Z,100921.93
2018-07-22T18:06:01.333Z,100926.00
2018-07-22T18:08:29.552Z,100925.11
2018-07-22T18:10:57.796Z,100931.89
2018-07-22T18:13:26.051Z,100929.47
2018-07-22T18:15:54.270Z,100928.71
2018-07-22T18:18:22.564Z,100924.58
2018-07-22T18:20:50.776Z,100930.27
2018-07-22T18:23:19.009Z,100934.33
2018-07-22T18:25:47.550Z,100932.37
2018-07-22T18:28:16.216Z,100930.95
2018-07-22T18:30:44.988Z,100937.66
2018-07-22T18:33:13.193Z,100936.45
2018-07-22T18:35:41.488Z,100939.92
2018-07-22T18:38:09.709Z,100942.06
2018-07-22T18:40:38.072Z,100937.39
2018-07-22T18:43:06.351Z,100946.59
2018-07-22T18:45:34.667Z,100944.93
2018-07-22T18:48:02.873Z,100946.28
2018-07-22T18:50:31.082Z,100948.39
2018-07-22T18:52:59.342Z,100951.33
2018-07-22T18:55:27.623Z,100954.58
2018-07-22T18:57:55.850Z,100956.08
2018-07-22T19:00:24.113Z,100957.13
2018-07-22T19:02:52.609Z,100956.00
2018-07-22T19:05:20.850Z,100959.20
2018-07-22T19:07:49.076Z,100956.19
2018-07-22T19:10:17.281Z,100961.23
2018-07-22T19:12:45.573Z,100957.88
2018-07-22T19:15:14.036Z,100959.99
2018-07-22T19:17:42.293Z,100960.22
2018-07-22T19:20:10.532Z,100962.33
2018-07-22T19:22:38.820Z,100967.70
2018-07-22T19:25:07.104Z,100968.45
2018-07-22T19:27:35.277Z,100965.14
2018-07-22T19:30:03.557Z,100972.66
2018-07-22T19:32:31.861Z,100975.38
2018-07-22T19:35:00.075Z,100982.90
2018-07-22T19:37:28.404Z,100978.23
2018-07-22T19:39:56.655Z,100982.47
2018-07-22T19:42:24.852Z,100986.45
2018-07-22T19:44:53.064Z,100993.15
2018-07-22T19:47:21.308Z,100994.95
2018-07-22T19:49:49.709Z,100994.03
2018-07-22T19:52:17.933Z,101004.22
2018-07-22T19:54:46.253Z,101002.17
2018-07-22T19:57:14.488Z,101002.00
2018-07-22T19:59:42.700Z,100999.73
2018-07-22T20:02:10.977Z,101008.34
2018-07-22T20:04:39.189Z,101007.13
2018-07-22T20:07:07.417Z,101008.19
2018-07-22T20:09:35.697Z,101006.39
2018-07-22T20:12:03.864Z,101007.18
2018-07-22T20:14:32.089Z,101010.27
2018-07-22T20:17:00.280Z,101011.66
2018-07-22T20:19:28.508Z,101021.20
2018-07-22T20:21:56.721Z,101023.95
2018-07-22T20:24:24.963Z,101019.41
2018-07-22T20:26:53.288Z,101025.28
2018-07-22T20:29:21.497Z,101029.98
2018-07-22T20:31:49.798Z,101038.23
2018-07-22T20:34:17.980Z,101036.48
2018-07-22T20:36:46.184Z,101026.84
2018-07-22T20:39:14.402Z,101037.02
2018-07-22T20:41:42.637Z,101042.77
2018-07-22T20:44:10.861Z,101048.85
2018-07-22T20:46:39.094Z,101050.63
2018-07-22T20:49:07.340Z,101052.93
2018-07-22T20:51:35.561Z,101050.03
2018-07-22T20:54:03.832Z,101056.94
2018-07-22T20:56:32.065Z,101053.09
2018-07-22T20:59:00.288Z,101059.55
2018-07-22T21:01:28.689Z,101060.59
2018-07-22T21:03:57.164Z,101062.05
2018-07-22T21:06:25.396Z,101057.07
2018-07-22T21:08:53.715Z,101070.27
2018-07-22T21:11:21.925Z,101061.75
2018-07-22T21:13:50.253Z,101072.88
2018-07-22T21:16:18.969Z,101076.92
2018-07-22T21:18:47.169Z,101074.64
2018-07-22T21:21:15.614Z,101076.73
2018-07-22T21:23:43.829Z,101080.19
2018-07-22T21:26:12.069Z,101087.89
2018-07-22T21:28:40.293Z,101085.09
2018-07-22T21:31:08.529Z,101088.83
2018-07-22T21:33:36.744Z,101082.19
2018-07-22T21:36:04.960Z,101089.67
2018-07-22T21:38:33.222Z,101093.66
2018-07-22T21:41:01.445Z,101095.73
2018-07-22T21:43:29.674Z,101094.67
2018-07-22T21:45:57.962Z,101094.05
2018-07-22T21:48:26.209Z,101098.20
2018-07-22T21:50:54.441Z,101098.13
2018-07-22T21:53:22.673Z,101085.04
2018-07-22T21:55:50.887Z,101103.23
2018-07-22T21:58:19.129Z,101101.66
2018-07-22T22:00:47.384Z,101110.22
2018-07-22T22:03:15.612Z,101113.02
2018-07-22T22:05:43.883Z,101118.52
2018-07-22T22:08:12.086Z,101117.06
2018-07-22T22:10:40.330Z,101112.31
2018-07-22T22:13:08.576Z,101116.77
2018-07-22T22:15:36.824Z,101116.86
2018-07-22T22:18:05.653Z,101117.27
2018-07-22T22:20:34.149Z,101123.12
2018-07-22T22:23:02.360Z,101120.30
2018-07-22T22:25:30.567Z,101129.65
2018-07-22T22:27:58.840Z,101125.69
2018-07-22T22:30:27.097Z,101118.31
2018-07-22T22:32:55.344Z,101117.97
2018-07-22T22:35:23.576Z,101125.44
2018-07-22T22:37:51.808Z,101123.49
2018-07-22T22:40:20.056Z,101123.58
2018-07-22T22:42:48.273Z,101129.39
2018-07-22T22:45:16.615Z,101128.13
2018-07-22T22:47:45.016Z,101131.27
2018-07-22T22:50:13.264Z,101133.42
2018-07-22T22:52:41.693Z,101128.52
2018-07-22T22:55:09.945Z,101131.65
2018-07-22T22:57:38.243Z,101128.20
2018-07-22T23:00:07.096Z,101135.86
2018-07-22T23:02:36.817Z,101129.41
2018-07-22T23:05:06.409Z,101125.99
2018-07-22T23:07:34.757Z,101129.09
2018-07-22T23:10:03.297Z,101127.42
2018-07-22T23:12:31.528Z,101125.84
2018-07-22T23:14:59.753Z,101125.44
2018-07-22T23:17:27.974Z,101120.30
2018-07-22T23:19:56.316Z,101125.05
2018-07-22T23:22:24.541Z,101127.83
2018-07-22T23:24:52.778Z,101126.39
2018-07-22T23:27:21.017Z,101126.16
2018-07-22T23:29:49.249Z,101134.12
2018-07-22T23:32:17.461Z,101139.39
2018-07-22T23:34:45.673Z,101142.80
2018-07-22T23:37:13.892Z,101137.00
2018-07-22T23:39:42.160Z,101140.09
2018-07-22T23:42:10.589Z,101138.63
2018-07-22T23:44:38.800Z,101141.52
2018-07-22T23:47:07.024Z,101138.19
2018-07-22T23:49:35.248Z,101143.77
2018-07-22T23:52:03.509Z,101139.92
2018-07-22T23:54:31.744Z,101136.30
2018-07-22T23:57:00.073Z,101133.80
2018-07-22T23:59:28.293Z,101135.23
